sensor_id;sensor_type;location;lat;lon;timestamp;P1;durP1;ratioP1;P2;durP2;ratioP2
22320;SDS011;11328;53.928;18.522;2023-08-12T00:00:23;14.07;;;5.55;;
22320;SDS011;11328;53.928;18.522;2023-08-12T00:02:50;15.55;;;5.75;;
22320;SDS011;11328;53.928;18.522;2023-08-12T00:05:17;15.68;;;5.20;;
22320;SDS011;11328;53.928;18.522;2023-08-12T00:07:44;18.40;;;5.80;;
22320;SDS011;11328;53.928;18.522;2023-08-12T00:10:11;15.23;;;4.88;;
22320;SDS011;11328;53.928;18.522;2023-08-12T00:12:39;11.07;;;5.00;;
22320;SDS011;11328;53.928;18.522;2023-08-12T00:15:06;13.30;;;5.28;;
22320;SDS011;11328;53.928;18.522;2023-08-12T00:17:36;12.07;;;4.75;;
22320;SDS011;11328;53.928;18.522;2023-08-12T00:20:04;13.27;;;5.80;;
22320;SDS011;11328;53.928;18.522;2023-08-12T00:22:33;13.82;;;5.95;;
22320;SDS011;11328;53.928;18.522;2023-08-12T00:25:00;14.85;;;5.50;;
22320;SDS011;11328;53.928;18.522;2023-08-12T00:27:27;14.45;;;6.28;;
22320;SDS011;11328;53.928;18.522;2023-08-12T00:29:54;12.75;;;5.80;;
22320;SDS011;11328;53.928;18.522;2023-08-12T00:32:21;16.42;;;6.53;;
22320;SDS011;11328;53.928;18.522;2023-08-12T00:34:48;13.32;;;5.32;;
22320;SDS011;11328;53.928;18.522;2023-08-12T00:37:15;12.57;;;5.43;;
22320;SDS011;11328;53.928;18.522;2023-08-12T00:39:42;15.73;;;4.57;;
22320;SDS011;11328;53.928;18.522;2023-08-12T00:42:09;17.70;;;4.95;;
22320;SDS011;11328;53.928;18.522;2023-08-12T00:44:36;13.52;;;4.38;;
22320;SDS011;11328;53.928;18.522;2023-08-12T00:47:03;20.75;;;7.95;;
22320;SDS011;11328;53.928;18.522;2023-08-12T00:49:31;23.48;;;8.95;;
22320;SDS011;11328;53.928;18.522;2023-08-12T00:51:59;15.07;;;5.25;;
22320;SDS011;11328;53.928;18.522;2023-08-12T00:54:27;17.50;;;7.72;;
22320;SDS011;11328;53.928;18.522;2023-08-12T00:56:55;17.98;;;7.35;;
22320;SDS011;11328;53.928;18.522;2023-08-12T00:59:22;14.88;;;5.97;;
22320;SDS011;11328;53.928;18.522;2023-08-12T01:01:50;12.80;;;5.47;;
22320;SDS011;11328;53.928;18.522;2023-08-12T01:04:17;11.90;;;4.88;;
22320;SDS011;11328;53.928;18.522;2023-08-12T01:06:44;14.73;;;5.38;;
22320;SDS011;11328;53.928;18.522;2023-08-12T01:09:11;14.52;;;6.80;;
22320;SDS011;11328;53.928;18.522;2023-08-12T01:11:40;23.80;;;8.65;;
22320;SDS011;11328;53.928;18.522;2023-08-12T01:17:11;14.02;;;5.22;;
22320;SDS011;11328;53.928;18.522;2023-08-12T01:19:41;16.58;;;6.10;;
22320;SDS011;11328;53.928;18.522;2023-08-12T01:22:11;21.35;;;7.40;;
22320;SDS011;11328;53.928;18.522;2023-08-12T01:24:42;12.80;;;6.53;;
22320;SDS011;11328;53.928;18.522;2023-08-12T01:27:11;13.82;;;5.05;;
22320;SDS011;11328;53.928;18.522;2023-08-12T01:29:41;11.65;;;5.10;;
22320;SDS011;11328;53.928;18.522;2023-08-12T01:35:02;15.52;;;4.80;;
22320;SDS011;11328;53.928;18.522;2023-08-12T01:37:53;13.43;;;4.63;;
22320;SDS011;11328;53.928;18.522;2023-08-12T01:40:23;13.40;;;4.95;;
22320;SDS011;11328;53.928;18.522;2023-08-12T01:42:51;11.43;;;4.90;;
22320;SDS011;11328;53.928;18.522;2023-08-12T01:45:19;11.80;;;5.03;;
22320;SDS011;11328;53.928;18.522;2023-08-12T01:47:46;15.50;;;5.10;;
22320;SDS011;11328;53.928;18.522;2023-08-12T01:50:16;13.48;;;6.43;;
22320;SDS011;11328;53.928;18.522;2023-08-12T01:52:45;14.38;;;5.20;;
22320;SDS011;11328;53.928;18.522;2023-08-12T01:55:12;16.70;;;5.03;;
22320;SDS011;11328;53.928;18.522;2023-08-12T01:57:39;16.83;;;5.10;;
22320;SDS011;11328;53.928;18.522;2023-08-12T02:00:06;10.70;;;4.30;;
22320;SDS011;11328;53.928;18.522;2023-08-12T02:02:34;11.50;;;4.25;;
22320;SDS011;11328;53.928;18.522;2023-08-12T02:05:01;13.70;;;4.53;;
22320;SDS011;11328;53.928;18.522;2023-08-12T02:07:29;11.15;;;4.53;;
22320;SDS011;11328;53.928;18.522;2023-08-12T02:09:56;12.35;;;4.60;;
22320;SDS011;11328;53.928;18.522;2023-08-12T02:12:23;13.65;;;4.80;;
22320;SDS011;11328;53.928;18.522;2023-08-12T02:14:50;15.30;;;4.78;;
22320;SDS011;11328;53.928;18.522;2023-08-12T02:17:17;12.68;;;5.35;;
22320;SDS011;11328;53.928;18.522;2023-08-12T02:19:44;11.38;;;4.75;;
22320;SDS011;11328;53.928;18.522;2023-08-12T02:22:11;16.65;;;6.43;;
22320;SDS011;11328;53.928;18.522;2023-08-12T02:24:38;16.58;;;5.53;;
22320;SDS011;11328;53.928;18.522;2023-08-12T02:27:05;15.05;;;6.00;;
22320;SDS011;11328;53.928;18.522;2023-08-12T02:29:32;12.60;;;5.32;;
22320;SDS011;11328;53.928;18.522;2023-08-12T02:32:00;14.18;;;5.90;;
22320;SDS011;11328;53.928;18.522;2023-08-12T02:34:27;18.88;;;9.23;;
22320;SDS011;11328;53.928;18.522;2023-08-12T02:36:54;17.88;;;6.72;;
22320;SDS011;11328;53.928;18.522;2023-08-12T02:39:21;12.73;;;5.45;;
22320;SDS011;11328;53.928;18.522;2023-08-12T02:41:48;12.60;;;5.82;;
22320;SDS011;11328;53.928;18.522;2023-08-12T02:44:15;15.32;;;6.50;;
22320;SDS011;11328;53.928;18.522;2023-08-12T02:46:42;13.07;;;5.82;;
22320;SDS011;11328;53.928;18.522;2023-08-12T02:49:09;16.65;;;7.57;;
22320;SDS011;11328;53.928;18.522;2023-08-12T02:51:36;16.80;;;7.40;;
22320;SDS011;11328;53.928;18.522;2023-08-12T02:54:03;15.57;;;6.68;;
22320;SDS011;11328;53.928;18.522;2023-08-12T02:56:30;20.70;;;7.18;;
22320;SDS011;11328;53.928;18.522;2023-08-12T02:58:57;16.63;;;7.47;;
22320;SDS011;11328;53.928;18.522;2023-08-12T03:01:24;15.45;;;6.70;;
22320;SDS011;11328;53.928;18.522;2023-08-12T03:03:51;23.83;;;19.98;;
22320;SDS011;11328;53.928;18.522;2023-08-12T03:06:18;14.77;;;7.55;;
22320;SDS011;11328;53.928;18.522;2023-08-12T03:08:46;12.90;;;5.72;;
22320;SDS011;11328;53.928;18.522;2023-08-12T03:11:13;12.40;;;5.38;;
22320;SDS011;11328;53.928;18.522;2023-08-12T03:13:40;15.40;;;6.18;;
22320;SDS011;11328;53.928;18.522;2023-08-12T03:16:13;14.48;;;6.10;;
22320;SDS011;11328;53.928;18.522;2023-08-12T03:18:41;15.13;;;6.88;;
22320;SDS011;11328;53.928;18.522;2023-08-12T03:21:08;15.57;;;6.20;;
22320;SDS011;11328;53.928;18.522;2023-08-12T03:23:36;12.85;;;6.28;;
22320;SDS011;11328;53.928;18.522;2023-08-12T03:26:04;12.57;;;6.20;;
22320;SDS011;11328;53.928;18.522;2023-08-12T03:28:31;13.43;;;5.60;;
22320;SDS011;11328;53.928;18.522;2023-08-12T03:30:58;12.80;;;5.88;;
22320;SDS011;11328;53.928;18.522;2023-08-12T03:33:25;15.63;;;6.18;;
22320;SDS011;11328;53.928;18.522;2023-08-12T03:35:52;13.95;;;5.72;;
22320;SDS011;11328;53.928;18.522;2023-08-12T03:38:19;10.77;;;5.70;;
22320;SDS011;11328;53.928;18.522;2023-08-12T03:40:46;19.70;;;6.22;;
22320;SDS011;11328;53.928;18.522;2023-08-12T03:43:13;16.02;;;6.25;;
22320;SDS011;11328;53.928;18.522;2023-08-12T03:45:40;14.98;;;5.97;;
22320;SDS011;11328;53.928;18.522;2023-08-12T03:48:09;14.65;;;6.32;;
22320;SDS011;11328;53.928;18.522;2023-08-12T03:50:36;21.75;;;7.05;;
22320;SDS011;11328;53.928;18.522;2023-08-12T03:53:04;15.88;;;7.00;;
22320;SDS011;11328;53.928;18.522;2023-08-12T03:55:32;17.83;;;6.63;;
22320;SDS011;11328;53.928;18.522;2023-08-12T03:58:00;15.55;;;5.95;;
22320;SDS011;11328;53.928;18.522;2023-08-12T04:00:28;15.65;;;5.82;;
22320;SDS011;11328;53.928;18.522;2023-08-12T04:02:55;15.20;;;6.28;;
22320;SDS011;11328;53.928;18.522;2023-08-12T04:05:22;14.02;;;5.93;;
22320;SDS011;11328;53.928;18.522;2023-08-12T04:07:49;14.80;;;6.22;;
22320;SDS011;11328;53.928;18.522;2023-08-12T04:10:16;14.38;;;6.00;;
22320;SDS011;11328;53.928;18.522;2023-08-12T04:12:43;15.40;;;5.97;;
22320;SDS011;11328;53.928;18.522;2023-08-12T04:15:10;17.90;;;6.07;;
22320;SDS011;11328;53.928;18.522;2023-08-12T04:17:37;12.20;;;4.85;;
22320;SDS011;11328;53.928;18.522;2023-08-12T04:20:07;14.52;;;5.55;;
22320;SDS011;11328;53.928;18.522;2023-08-12T04:22:35;13.98;;;5.70;;
22320;SDS011;11328;53.928;18.522;2023-08-12T04:25:02;13.00;;;5.07;;
22320;SDS011;11328;53.928;18.522;2023-08-12T04:27:30;14.00;;;5.85;;
22320;SDS011;11328;53.928;18.522;2023-08-12T04:29:57;13.70;;;5.38;;
22320;SDS011;11328;53.928;18.522;2023-08-12T04:32:24;15.90;;;5.45;;
22320;SDS011;11328;53.928;18.522;2023-08-12T04:34:51;15.13;;;5.78;;
22320;SDS011;11328;53.928;18.522;2023-08-12T04:37:18;14.55;;;5.90;;
22320;SDS011;11328;53.928;18.522;2023-08-12T04:39:45;19.88;;;5.93;;
22320;SDS011;11328;53.928;18.522;2023-08-12T04:42:12;16.92;;;6.18;;
22320;SDS011;11328;53.928;18.522;2023-08-12T04:44:39;13.05;;;5.50;;
22320;SDS011;11328;53.928;18.522;2023-08-12T04:47:06;18.95;;;6.03;;
22320;SDS011;11328;53.928;18.522;2023-08-12T04:49:33;15.07;;;6.15;;
22320;SDS011;11328;53.928;18.522;2023-08-12T04:52:00;18.67;;;6.07;;
22320;SDS011;11328;53.928;18.522;2023-08-12T04:54:26;20.85;;;7.07;;
22320;SDS011;11328;53.928;18.522;2023-08-12T04:56:53;17.67;;;6.53;;
22320;SDS011;11328;53.928;18.522;2023-08-12T04:59:22;13.45;;;6.13;;
22320;SDS011;11328;53.928;18.522;2023-08-12T05:01:49;22.40;;;6.63;;
22320;SDS011;11328;53.928;18.522;2023-08-12T05:04:29;19.25;;;6.30;;
22320;SDS011;11328;53.928;18.522;2023-08-12T05:06:56;21.00;;;6.38;;
22320;SDS011;11328;53.928;18.522;2023-08-12T05:09:23;21.63;;;7.00;;
22320;SDS011;11328;53.928;18.522;2023-08-12T05:11:50;17.15;;;6.72;;
22320;SDS011;11328;53.928;18.522;2023-08-12T05:14:17;14.80;;;7.10;;
22320;SDS011;11328;53.928;18.522;2023-08-12T05:16:44;19.75;;;6.88;;
22320;SDS011;11328;53.928;18.522;2023-08-12T05:19:11;13.95;;;6.60;;
22320;SDS011;11328;53.928;18.522;2023-08-12T05:21:38;18.10;;;6.97;;
22320;SDS011;11328;53.928;18.522;2023-08-12T05:24:05;13.40;;;6.55;;
22320;SDS011;11328;53.928;18.522;2023-08-12T05:26:33;18.23;;;6.57;;
22320;SDS011;11328;53.928;18.522;2023-08-12T05:29:00;15.23;;;6.65;;
22320;SDS011;11328;53.928;18.522;2023-08-12T05:31:27;15.70;;;6.97;;
22320;SDS011;11328;53.928;18.522;2023-08-12T05:33:54;15.68;;;7.20;;
22320;SDS011;11328;53.928;18.522;2023-08-12T05:36:21;12.93;;;6.38;;
22320;SDS011;11328;53.928;18.522;2023-08-12T05:38:48;12.20;;;6.18;;
22320;SDS011;11328;53.928;18.522;2023-08-12T05:41:15;15.43;;;5.80;;
22320;SDS011;11328;53.928;18.522;2023-08-12T05:43:42;10.65;;;5.22;;
22320;SDS011;11328;53.928;18.522;2023-08-12T05:46:10;10.43;;;5.18;;
22320;SDS011;11328;53.928;18.522;2023-08-12T05:48:37;8.35;;;4.07;;
22320;SDS011;11328;53.928;18.522;2023-08-12T05:51:04;42.83;;;4.55;;
22320;SDS011;11328;53.928;18.522;2023-08-12T05:53:31;9.75;;;3.95;;
22320;SDS011;11328;53.928;18.522;2023-08-12T05:55:59;13.70;;;3.83;;
22320;SDS011;11328;53.928;18.522;2023-08-12T05:58:26;9.02;;;3.50;;
22320;SDS011;11328;53.928;18.522;2023-08-12T06:00:53;13.27;;;3.70;;
22320;SDS011;11328;53.928;18.522;2023-08-12T06:03:20;9.30;;;3.60;;
22320;SDS011;11328;53.928;18.522;2023-08-12T06:05:47;12.35;;;4.00;;
22320;SDS011;11328;53.928;18.522;2023-08-12T06:08:15;22.55;;;3.70;;
22320;SDS011;11328;53.928;18.522;2023-08-12T06:10:42;10.98;;;3.30;;
22320;SDS011;11328;53.928;18.522;2023-08-12T06:13:09;11.77;;;3.60;;
22320;SDS011;11328;53.928;18.522;2023-08-12T06:15:36;10.88;;;3.40;;
22320;SDS011;11328;53.928;18.522;2023-08-12T06:18:03;8.30;;;3.22;;
22320;SDS011;11328;53.928;18.522;2023-08-12T06:20:31;11.98;;;3.50;;
22320;SDS011;11328;53.928;18.522;2023-08-12T06:22:58;11.70;;;3.50;;
22320;SDS011;11328;53.928;18.522;2023-08-12T06:25:25;10.60;;;3.45;;
22320;SDS011;11328;53.928;18.522;2023-08-12T06:27:52;9.02;;;3.03;;
22320;SDS011;11328;53.928;18.522;2023-08-12T06:30:19;9.45;;;3.15;;
22320;SDS011;11328;53.928;18.522;2023-08-12T06:32:46;10.15;;;2.97;;
22320;SDS011;11328;53.928;18.522;2023-08-12T06:35:13;8.48;;;3.10;;
22320;SDS011;11328;53.928;18.522;2023-08-12T06:37:40;9.77;;;3.13;;
22320;SDS011;11328;53.928;18.522;2023-08-12T06:40:08;11.07;;;2.92;;
22320;SDS011;11328;53.928;18.522;2023-08-12T06:42:35;9.02;;;3.00;;
22320;SDS011;11328;53.928;18.522;2023-08-12T06:45:02;12.90;;;2.83;;
22320;SDS011;11328;53.928;18.522;2023-08-12T06:47:30;18.08;;;3.40;;
22320;SDS011;11328;53.928;18.522;2023-08-12T06:49:57;77.63;;;5.50;;
22320;SDS011;11328;53.928;18.522;2023-08-12T06:52:24;13.60;;;3.38;;
22320;SDS011;11328;53.928;18.522;2023-08-12T06:54:51;10.52;;;3.03;;
22320;SDS011;11328;53.928;18.522;2023-08-12T06:57:18;10.48;;;2.90;;
22320;SDS011;11328;53.928;18.522;2023-08-12T06:59:45;9.48;;;2.90;;
22320;SDS011;11328;53.928;18.522;2023-08-12T07:02:12;10.35;;;3.40;;
22320;SDS011;11328;53.928;18.522;2023-08-12T07:04:39;10.02;;;3.30;;
22320;SDS011;11328;53.928;18.522;2023-08-12T07:07:06;12.93;;;3.50;;
22320;SDS011;11328;53.928;18.522;2023-08-12T07:09:33;10.38;;;3.22;;
22320;SDS011;11328;53.928;18.522;2023-08-12T07:12:00;10.48;;;3.53;;
22320;SDS011;11328;53.928;18.522;2023-08-12T07:14:30;12.48;;;3.25;;
22320;SDS011;11328;53.928;18.522;2023-08-12T07:16:57;21.88;;;9.98;;
22320;SDS011;11328;53.928;18.522;2023-08-12T07:19:24;19.85;;;10.88;;
22320;SDS011;11328;53.928;18.522;2023-08-12T07:21:51;12.02;;;5.07;;
22320;SDS011;11328;53.928;18.522;2023-08-12T07:24:18;10.25;;;4.00;;
22320;SDS011;11328;53.928;18.522;2023-08-12T07:26:45;10.90;;;4.18;;
22320;SDS011;11328;53.928;18.522;2023-08-12T07:29:14;11.10;;;3.72;;
22320;SDS011;11328;53.928;18.522;2023-08-12T07:31:41;13.77;;;3.83;;
22320;SDS011;11328;53.928;18.522;2023-08-12T07:34:08;11.65;;;3.10;;
22320;SDS011;11328;53.928;18.522;2023-08-12T07:36:39;6.95;;;2.95;;
22320;SDS011;11328;53.928;18.522;2023-08-12T07:39:07;12.20;;;2.90;;
22320;SDS011;11328;53.928;18.522;2023-08-12T07:41:34;7.63;;;2.83;;
22320;SDS011;11328;53.928;18.522;2023-08-12T07:44:01;6.78;;;2.80;;
22320;SDS011;11328;53.928;18.522;2023-08-12T07:46:28;12.85;;;2.90;;
22320;SDS011;11328;53.928;18.522;2023-08-12T07:48:56;10.98;;;2.70;;
22320;SDS011;11328;53.928;18.522;2023-08-12T07:51:23;37.70;;;3.90;;
22320;SDS011;11328;53.928;18.522;2023-08-12T07:53:51;13.85;;;3.30;;
22320;SDS011;11328;53.928;18.522;2023-08-12T07:56:18;8.75;;;2.67;;
22320;SDS011;11328;53.928;18.522;2023-08-12T07:58:45;7.63;;;2.60;;
22320;SDS011;11328;53.928;18.522;2023-08-12T08:01:12;6.75;;;2.75;;
22320;SDS011;11328;53.928;18.522;2023-08-12T08:03:40;14.52;;;5.00;;
22320;SDS011;11328;53.928;18.522;2023-08-12T08:06:07;10.57;;;3.65;;
22320;SDS011;11328;53.928;18.522;2023-08-12T08:08:34;8.25;;;2.70;;
22320;SDS011;11328;53.928;18.522;2023-08-12T08:11:01;10.40;;;2.80;;
22320;SDS011;11328;53.928;18.522;2023-08-12T08:13:28;11.65;;;2.65;;
22320;SDS011;11328;53.928;18.522;2023-08-12T08:15:55;8.40;;;2.70;;
22320;SDS011;11328;53.928;18.522;2023-08-12T08:18:22;10.55;;;2.72;;
22320;SDS011;11328;53.928;18.522;2023-08-12T08:20:49;11.18;;;2.38;;
22320;SDS011;11328;53.928;18.522;2023-08-12T08:23:16;5.43;;;2.35;;
22320;SDS011;11328;53.928;18.522;2023-08-12T08:25:43;21.25;;;3.55;;
22320;SDS011;11328;53.928;18.522;2023-08-12T08:28:10;13.35;;;2.85;;
22320;SDS011;11328;53.928;18.522;2023-08-12T08:30:37;8.65;;;2.85;;
22320;SDS011;11328;53.928;18.522;2023-08-12T08:33:04;11.05;;;2.80;;
22320;SDS011;11328;53.928;18.522;2023-08-12T08:35:32;13.07;;;2.90;;
22320;SDS011;11328;53.928;18.522;2023-08-12T08:37:59;10.93;;;3.05;;
22320;SDS011;11328;53.928;18.522;2023-08-12T08:40:26;8.52;;;2.70;;
22320;SDS011;11328;53.928;18.522;2023-08-12T08:42:54;6.63;;;2.50;;
22320;SDS011;11328;53.928;18.522;2023-08-12T08:45:32;7.65;;;2.78;;
22320;SDS011;11328;53.928;18.522;2023-08-12T08:48:02;5.32;;;2.40;;
22320;SDS011;11328;53.928;18.522;2023-08-12T08:50:31;8.88;;;2.80;;
22320;SDS011;11328;53.928;18.522;2023-08-12T08:52:58;9.52;;;2.60;;
22320;SDS011;11328;53.928;18.522;2023-08-12T08:55:29;8.38;;;2.50;;
22320;SDS011;11328;53.928;18.522;2023-08-12T08:57:56;23.88;;;3.20;;
22320;SDS011;11328;53.928;18.522;2023-08-12T09:00:30;9.77;;;2.63;;
22320;SDS011;11328;53.928;18.522;2023-08-12T09:02:58;11.45;;;2.78;;
22320;SDS011;11328;53.928;18.522;2023-08-12T09:05:26;14.65;;;2.70;;
22320;SDS011;11328;53.928;18.522;2023-08-12T09:07:56;13.60;;;3.00;;
22320;SDS011;11328;53.928;18.522;2023-08-12T09:10:26;10.45;;;3.28;;
22320;SDS011;11328;53.928;18.522;2023-08-12T09:12:55;6.43;;;2.88;;
22320;SDS011;11328;53.928;18.522;2023-08-12T09:15:22;10.15;;;2.90;;
22320;SDS011;11328;53.928;18.522;2023-08-12T09:17:50;6.63;;;2.40;;
22320;SDS011;11328;53.928;18.522;2023-08-12T09:20:18;11.55;;;3.10;;
22320;SDS011;11328;53.928;18.522;2023-08-12T09:22:45;13.45;;;3.00;;
22320;SDS011;11328;53.928;18.522;2023-08-12T09:25:21;6.30;;;2.85;;
22320;SDS011;11328;53.928;18.522;2023-08-12T09:27:49;8.73;;;2.70;;
22320;SDS011;11328;53.928;18.522;2023-08-12T09:30:16;9.30;;;2.88;;
22320;SDS011;11328;53.928;18.522;2023-08-12T09:32:48;6.05;;;2.53;;
22320;SDS011;11328;53.928;18.522;2023-08-12T09:35:33;12.50;;;2.90;;
22320;SDS011;11328;53.928;18.522;2023-08-12T09:38:03;7.75;;;2.70;;
22320;SDS011;11328;53.928;18.522;2023-08-12T09:40:37;13.48;;;3.13;;
22320;SDS011;11328;53.928;18.522;2023-08-12T09:43:04;18.90;;;3.22;;
22320;SDS011;11328;53.928;18.522;2023-08-12T09:45:33;11.07;;;3.30;;
22320;SDS011;11328;53.928;18.522;2023-08-12T09:48:01;8.13;;;2.92;;
22320;SDS011;11328;53.928;18.522;2023-08-12T09:50:29;7.55;;;3.13;;
22320;SDS011;11328;53.928;18.522;2023-08-12T09:52:56;8.85;;;2.90;;
22320;SDS011;11328;53.928;18.522;2023-08-12T09:55:23;9.57;;;3.00;;
22320;SDS011;11328;53.928;18.522;2023-08-12T09:57:52;54.67;;;4.93;;
22320;SDS011;11328;53.928;18.522;2023-08-12T10:00:21;11.50;;;3.08;;
22320;SDS011;11328;53.928;18.522;2023-08-12T10:02:50;19.23;;;3.40;;
22320;SDS011;11328;53.928;18.522;2023-08-12T10:05:19;31.08;;;4.20;;
22320;SDS011;11328;53.928;18.522;2023-08-12T10:07:53;19.27;;;3.50;;
22320;SDS011;11328;53.928;18.522;2023-08-12T10:10:20;32.35;;;3.90;;
22320;SDS011;11328;53.928;18.522;2023-08-12T10:12:51;10.63;;;3.72;;
22320;SDS011;11328;53.928;18.522;2023-08-12T10:15:18;9.07;;;3.00;;
22320;SDS011;11328;53.928;18.522;2023-08-12T10:17:47;10.90;;;3.00;;
22320;SDS011;11328;53.928;18.522;2023-08-12T10:20:21;12.95;;;3.53;;
22320;SDS011;11328;53.928;18.522;2023-08-12T10:22:51;9.90;;;3.22;;
22320;SDS011;11328;53.928;18.522;2023-08-12T10:25:19;11.40;;;3.40;;
22320;SDS011;11328;53.928;18.522;2023-08-12T10:27:50;12.88;;;3.50;;
22320;SDS011;11328;53.928;18.522;2023-08-12T10:30:17;15.65;;;3.42;;
22320;SDS011;11328;53.928;18.522;2023-08-12T10:32:46;7.43;;;3.00;;
22320;SDS011;11328;53.928;18.522;2023-08-12T10:35:14;24.73;;;3.45;;
22320;SDS011;11328;53.928;18.522;2023-08-12T10:37:41;11.15;;;2.97;;
22320;SDS011;11328;53.928;18.522;2023-08-12T10:40:20;11.95;;;2.90;;
22320;SDS011;11328;53.928;18.522;2023-08-12T10:42:49;12.27;;;3.20;;
22320;SDS011;11328;53.928;18.522;2023-08-12T10:45:17;8.77;;;3.00;;
22320;SDS011;11328;53.928;18.522;2023-08-12T10:50:49;10.57;;;2.92;;
22320;SDS011;11328;53.928;18.522;2023-08-12T10:53:26;53.17;;;5.05;;
22320;SDS011;11328;53.928;18.522;2023-08-12T10:56:00;19.38;;;3.15;;
22320;SDS011;11328;53.928;18.522;2023-08-12T10:58:33;9.73;;;3.05;;
22320;SDS011;11328;53.928;18.522;2023-08-12T11:01:13;11.63;;;2.92;;
22320;SDS011;11328;53.928;18.522;2023-08-12T11:03:44;75.55;;;6.43;;
22320;SDS011;11328;53.928;18.522;2023-08-12T11:06:11;10.20;;;2.85;;
22320;SDS011;11328;53.928;18.522;2023-08-12T11:08:45;8.65;;;2.83;;
22320;SDS011;11328;53.928;18.522;2023-08-12T11:11:19;8.50;;;2.70;;
22320;SDS011;11328;53.928;18.522;2023-08-12T11:13:58;10.52;;;2.85;;
22320;SDS011;11328;53.928;18.522;2023-08-12T11:16:31;7.07;;;2.70;;
22320;SDS011;11328;53.928;18.522;2023-08-12T11:19:04;20.35;;;3.33;;
22320;SDS011;11328;53.928;18.522;2023-08-12T11:21:32;7.15;;;2.70;;
22320;SDS011;11328;53.928;18.522;2023-08-12T11:24:03;29.38;;;3.65;;
22320;SDS011;11328;53.928;18.522;2023-08-12T11:26:31;9.50;;;2.70;;
22320;SDS011;11328;53.928;18.522;2023-08-12T11:28:58;11.98;;;3.03;;
22320;SDS011;11328;53.928;18.522;2023-08-12T11:31:25;7.53;;;2.80;;
22320;SDS011;11328;53.928;18.522;2023-08-12T11:33:53;11.50;;;2.78;;
22320;SDS011;11328;53.928;18.522;2023-08-12T11:36:20;7.30;;;3.38;;
22320;SDS011;11328;53.928;18.522;2023-08-12T11:38:48;19.10;;;2.67;;
22320;SDS011;11328;53.928;18.522;2023-08-12T11:41:17;9.20;;;2.78;;
22320;SDS011;11328;53.928;18.522;2023-08-12T11:43:44;23.40;;;3.10;;
22320;SDS011;11328;53.928;18.522;2023-08-12T11:46:11;8.32;;;2.53;;
22320;SDS011;11328;53.928;18.522;2023-08-12T11:48:43;9.57;;;2.58;;
22320;SDS011;11328;53.928;18.522;2023-08-12T11:51:16;5.47;;;2.53;;
22320;SDS011;11328;53.928;18.522;2023-08-12T11:53:44;10.05;;;2.50;;
22320;SDS011;11328;53.928;18.522;2023-08-12T11:56:11;8.40;;;2.35;;
22320;SDS011;11328;53.928;18.522;2023-08-12T11:58:38;7.55;;;2.60;;
22320;SDS011;11328;53.928;18.522;2023-08-12T12:01:17;8.23;;;2.80;;
22320;SDS011;11328;53.928;18.522;2023-08-12T12:03:44;6.97;;;2.55;;
22320;SDS011;11328;53.928;18.522;2023-08-12T12:06:17;8.30;;;2.50;;
22320;SDS011;11328;53.928;18.522;2023-08-12T12:08:53;74.22;;;5.40;;
22320;SDS011;11328;53.928;18.522;2023-08-12T12:11:20;8.18;;;2.60;;
22320;SDS011;11328;53.928;18.522;2023-08-12T12:13:47;25.77;;;3.22;;
22320;SDS011;11328;53.928;18.522;2023-08-12T12:16:14;11.65;;;3.05;;
22320;SDS011;11328;53.928;18.522;2023-08-12T12:18:41;10.10;;;2.60;;
22320;SDS011;11328;53.928;18.522;2023-08-12T12:21:08;181.93;;;9.70;;
22320;SDS011;11328;53.928;18.522;2023-08-12T12:23:36;6.35;;;2.47;;
22320;SDS011;11328;53.928;18.522;2023-08-12T12:26:03;8.02;;;2.60;;
22320;SDS011;11328;53.928;18.522;2023-08-12T12:28:31;34.80;;;3.95;;
22320;SDS011;11328;53.928;18.522;2023-08-12T12:30:58;7.82;;;2.45;;
22320;SDS011;11328;53.928;18.522;2023-08-12T12:33:25;7.55;;;2.63;;
22320;SDS011;11328;53.928;18.522;2023-08-12T12:35:52;7.65;;;2.75;;
22320;SDS011;11328;53.928;18.522;2023-08-12T12:38:24;11.32;;;2.83;;
22320;SDS011;11328;53.928;18.522;2023-08-12T12:40:52;21.35;;;3.50;;
22320;SDS011;11328;53.928;18.522;2023-08-12T12:43:19;10.48;;;2.80;;
22320;SDS011;11328;53.928;18.522;2023-08-12T12:45:46;7.28;;;2.60;;
22320;SDS011;11328;53.928;18.522;2023-08-12T12:48:13;19.80;;;3.47;;
22320;SDS011;11328;53.928;18.522;2023-08-12T12:50:40;11.05;;;2.75;;
22320;SDS011;11328;53.928;18.522;2023-08-12T12:53:07;20.67;;;3.20;;
22320;SDS011;11328;53.928;18.522;2023-08-12T12:55:34;10.65;;;2.70;;
22320;SDS011;11328;53.928;18.522;2023-08-12T12:58:01;33.38;;;3.47;;
22320;SDS011;11328;53.928;18.522;2023-08-12T13:00:28;8.13;;;2.55;;
22320;SDS011;11328;53.928;18.522;2023-08-12T13:02:55;8.00;;;2.65;;
22320;SDS011;11328;53.928;18.522;2023-08-12T13:05:22;28.13;;;3.25;;
22320;SDS011;11328;53.928;18.522;2023-08-12T13:07:49;7.65;;;2.70;;
22320;SDS011;11328;53.928;18.522;2023-08-12T13:10:16;7.88;;;2.92;;
22320;SDS011;11328;53.928;18.522;2023-08-12T13:12:43;8.93;;;2.83;;
22320;SDS011;11328;53.928;18.522;2023-08-12T13:15:10;7.57;;;2.50;;
22320;SDS011;11328;53.928;18.522;2023-08-12T13:17:38;9.57;;;2.83;;
22320;SDS011;11328;53.928;18.522;2023-08-12T13:20:05;7.85;;;2.60;;
22320;SDS011;11328;53.928;18.522;2023-08-12T13:22:33;6.65;;;2.40;;
22320;SDS011;11328;53.928;18.522;2023-08-12T13:25:00;9.23;;;2.40;;
22320;SDS011;11328;53.928;18.522;2023-08-12T13:27:28;9.52;;;2.78;;
22320;SDS011;11328;53.928;18.522;2023-08-12T13:29:55;7.00;;;2.40;;
22320;SDS011;11328;53.928;18.522;2023-08-12T13:32:22;5.85;;;2.10;;
22320;SDS011;11328;53.928;18.522;2023-08-12T13:34:49;7.00;;;2.65;;
22320;SDS011;11328;53.928;18.522;2023-08-12T13:37:16;7.70;;;2.40;;
22320;SDS011;11328;53.928;18.522;2023-08-12T13:39:43;14.13;;;2.72;;
22320;SDS011;11328;53.928;18.522;2023-08-12T13:42:10;7.13;;;2.40;;
22320;SDS011;11328;53.928;18.522;2023-08-12T13:44:37;8.98;;;2.70;;
22320;SDS011;11328;53.928;18.522;2023-08-12T13:47:04;7.97;;;2.38;;
22320;SDS011;11328;53.928;18.522;2023-08-12T13:49:31;9.45;;;2.60;;
22320;SDS011;11328;53.928;18.522;2023-08-12T13:51:58;7.75;;;2.60;;
22320;SDS011;11328;53.928;18.522;2023-08-12T13:54:25;6.22;;;2.33;;
22320;SDS011;11328;53.928;18.522;2023-08-12T13:56:52;9.75;;;2.80;;
22320;SDS011;11328;53.928;18.522;2023-08-12T13:59:19;6.95;;;2.80;;
22320;SDS011;11328;53.928;18.522;2023-08-12T14:01:47;6.22;;;2.33;;
22320;SDS011;11328;53.928;18.522;2023-08-12T14:04:14;38.25;;;3.40;;
22320;SDS011;11328;53.928;18.522;2023-08-12T14:06:41;11.50;;;2.55;;
22320;SDS011;11328;53.928;18.522;2023-08-12T14:09:09;16.27;;;3.05;;
22320;SDS011;11328;53.928;18.522;2023-08-12T14:11:40;8.63;;;2.55;;
22320;SDS011;11328;53.928;18.522;2023-08-12T14:14:07;9.65;;;2.65;;
22320;SDS011;11328;53.928;18.522;2023-08-12T14:16:35;11.90;;;3.08;;
22320;SDS011;11328;53.928;18.522;2023-08-12T14:19:02;7.97;;;2.40;;
22320;SDS011;11328;53.928;18.522;2023-08-12T14:21:29;21.38;;;2.97;;
22320;SDS011;11328;53.928;18.522;2023-08-12T14:23:56;47.97;;;6.30;;
22320;SDS011;11328;53.928;18.522;2023-08-12T14:26:23;16.98;;;2.67;;
22320;SDS011;11328;53.928;18.522;2023-08-12T14:28:50;8.98;;;2.83;;
22320;SDS011;11328;53.928;18.522;2023-08-12T14:31:17;7.82;;;2.65;;
22320;SDS011;11328;53.928;18.522;2023-08-12T14:33:44;22.38;;;2.88;;
22320;SDS011;11328;53.928;18.522;2023-08-12T14:36:11;12.30;;;2.60;;
22320;SDS011;11328;53.928;18.522;2023-08-12T14:38:38;8.13;;;2.50;;